Huvudsida
METAR-TAF:

METAR-TAF

Flygplatser :

Sao Jose Dos Campo

São José dos Campos, São Paulo, Brasilien

latitud: 23-14S, longitud: 045-52W, höjd: 646 m

Aktuellt väderrapport

Denna rapport gjordes för 22 minuter sedan, klockan 20:00 UTC
Vind 3 kt från väst/nordväst
Temperatur 23°C
Fuktighet 41%
Tryck 1020 hPa
Sikt 10 km eller mer
Inga moln under 1 500 m eller inga cumulonimbus

METAR: SBSJ 292000Z 29003KT CAVOK 23/09 Q1020

Tid: 17:22 (20:22 UTC)

Väderprognos

Denna rapport gjordes för 5 timmar och 22 minuter sedan, klockan 15:00 UTC
Prognos gäller från 29 kl. 18 UTC till 30 kl. 06 UTC
Vind 5 kt från väst/nordväst
Sikt 10 km eller mer
Inga moln under 1 500 m eller inga cumulonimbus
Blir
från 29 kl. 22 UTC till 29 kl. 24 UTC
Vind 5 kt från syd/sydost
Blir
från 30 kl. 04 UTC till 30 kl. 06 UTC
Vind 2 kt från syd/sydost
Sikt: 8000 m

TAF: SBSJ 291500Z 2918/3006 29005KT CAVOK TX22/2918Z TN07/3006Z BECMG 2922/2924 16005KT BECMG 3004/3006 16002KT 8000 NSC RMK PAY

Aktuella väderrapporter och prognoser från 4000 flygplatser (METAR- och TAF-rapporter).

De tillgängliga stationerna syns som gula och röda prickar på kartan.

För musen över prickarna för att se namnen på stationerna.

Klicka sedan för att få väderrapporter och prognoser.

För att ändra kartan: Klicka på de gröna knapparna med ett svart kors på för att zooma in; den gröna knappen med ett streck på för att zooma ut; eller på de gröna pilarna för angränsande kartor.


METAR-TAF: